createdAt,value
2022-09-12T00:01:14.803Z,16.71
2022-09-12T00:03:42.299Z,16.70
2022-09-12T00:06:33.099Z,16.69
2022-09-12T00:09:02.517Z,16.69
2022-09-12T00:11:29.798Z,16.63
2022-09-12T00:13:59.968Z,16.61
2022-09-12T00:16:29.523Z,16.65
2022-09-12T00:18:56.780Z,16.61
2022-09-12T00:21:24.695Z,16.61
2022-09-12T00:23:51.972Z,16.57
2022-09-12T00:26:20.964Z,16.54
2022-09-12T00:28:48.518Z,16.53
2022-09-12T00:31:21.041Z,16.51
2022-09-12T00:33:48.216Z,16.48
2022-09-12T00:36:21.907Z,16.48
2022-09-12T00:38:50.171Z,16.47
2022-09-12T00:41:30.876Z,16.45
2022-09-12T00:44:02.147Z,16.44
2022-09-12T00:46:36.312Z,16.44
2022-09-12T00:49:25.663Z,16.44
2022-09-12T00:52:09.638Z,16.43
2022-09-12T00:54:52.962Z,16.41
2022-09-12T00:57:24.164Z,16.40
2022-09-12T01:00:04.572Z,16.37
2022-09-12T01:02:31.608Z,16.35
2022-09-12T01:04:58.531Z,16.32
2022-09-12T01:07:25.546Z,16.31
2022-09-12T01:09:52.797Z,16.28
2022-09-12T01:12:20.419Z,16.25
2022-09-12T01:14:47.340Z,16.23
2022-09-12T01:17:16.694Z,16.19
2022-09-12T01:20:36.484Z,16.19
2022-09-12T01:23:48.148Z,16.15
2022-09-12T01:26:33.513Z,16.12
2022-09-12T01:29:30.778Z,16.11
2022-09-12T01:32:05.440Z,16.06
2022-09-12T01:34:57.871Z,16.02
2022-09-12T01:37:54.915Z,16.03
2022-09-12T01:40:28.785Z,16.00
2022-09-12T01:43:17.672Z,15.98
2022-09-12T01:46:03.072Z,15.97
2022-09-12T01:48:40.215Z,15.95
2022-09-12T01:51:28.020Z,15.95
2022-09-12T01:54:05.161Z,15.93
2022-09-12T01:56:36.122Z,15.94
2022-09-12T01:59:28.601Z,15.93
2022-09-12T02:02:21.956Z,15.91
2022-09-12T02:05:20.622Z,15.91
2022-09-12T02:08:17.158Z,15.89
2022-09-12T02:11:07.947Z,15.89
2022-09-12T02:14:02.803Z,15.88
2022-09-12T02:16:52.754Z,15.87
2022-09-12T02:19:26.835Z,15.87
2022-09-12T02:22:01.379Z,15.86
2022-09-12T02:24:39.427Z,15.85
2022-09-12T02:27:26.773Z,15.85
2022-09-12T02:29:53.965Z,15.84
2022-09-12T02:33:05.657Z,15.81
2022-09-12T02:36:04.320Z,15.81
2022-09-12T02:38:45.757Z,15.80
2022-09-12T02:41:18.768Z,15.77
2022-09-12T02:43:46.733Z,15.76
2022-09-12T02:46:33.171Z,15.75
2022-09-12T02:49:01.188Z,15.72
2022-09-12T02:51:28.340Z,15.71
2022-09-12T02:53:55.900Z,15.68
2022-09-12T02:56:29.420Z,15.69
2022-09-12T02:59:07.980Z,15.67
2022-09-12T03:02:22.743Z,15.64
2022-09-12T03:05:17.900Z,15.64
2022-09-12T03:07:50.819Z,15.62
2022-09-12T03:11:02.240Z,15.62
2022-09-12T03:13:29.037Z,15.60
2022-09-12T03:16:29.976Z,15.59
2022-09-12T03:19:06.417Z,15.59
2022-09-12T03:22:13.246Z,15.57
2022-09-12T03:25:12.464Z,15.56
2022-09-12T03:28:07.409Z,15.56
2022-09-12T03:30:43.713Z,15.54
2022-09-12T03:33:17.200Z,15.54
2022-09-12T03:35:46.566Z,15.52
2022-09-12T03:38:13.586Z,15.52
2022-09-12T03:40:40.938Z,15.51
2022-09-12T03:43:08.834Z,15.49
2022-09-12T03:45:37.056Z,15.49
2022-09-12T03:48:06.058Z,15.46
2022-09-12T03:50:33.774Z,15.43
2022-09-12T03:53:02.097Z,15.41
2022-09-12T03:55:29.110Z,15.40
2022-09-12T03:57:56.485Z,15.38
2022-09-12T04:00:23.776Z,15.35
2022-09-12T04:02:55.963Z,15.35
2022-09-12T04:05:24.717Z,15.34
2022-09-12T04:07:52.182Z,15.33
2022-09-12T04:10:19.227Z,15.31
2022-09-12T04:12:46.153Z,15.30
2022-09-12T04:15:13.236Z,15.29
2022-09-12T04:17:40.165Z,15.28
2022-09-12T04:20:07.712Z,15.26
2022-09-12T04:22:34.671Z,15.28
2022-09-12T04:25:01.933Z,15.27
2022-09-12T04:27:29.009Z,15.25
2022-09-12T04:29:56.417Z,15.25
2022-09-12T04:32:23.379Z,15.24
2022-09-12T04:34:52.286Z,15.22
2022-09-12T04:37:19.330Z,15.22
2022-09-12T04:39:48.436Z,15.20
2022-09-12T04:42:16.128Z,15.19
2022-09-12T04:44:43.173Z,15.18
2022-09-12T04:47:10.164Z,15.18
2022-09-12T04:49:37.638Z,15.18
2022-09-12T04:52:04.656Z,15.17
2022-09-12T04:54:31.820Z,15.18
2022-09-12T04:56:59.529Z,15.16
2022-09-12T04:59:27.652Z,15.17
2022-09-12T05:01:54.650Z,15.15
2022-09-12T05:04:21.637Z,15.18
2022-09-12T05:06:48.782Z,15.20
2022-09-12T05:09:16.447Z,15.18
2022-09-12T05:14:33.206Z,15.18
2022-09-12T05:17:01.553Z,15.18
2022-09-12T05:19:30.808Z,15.17
2022-09-12T05:21:58.934Z,15.17
2022-09-12T05:24:26.005Z,15.17
2022-09-12T05:26:53.284Z,15.16
2022-09-12T05:29:20.278Z,15.16
2022-09-12T05:31:50.069Z,15.16
2022-09-12T05:34:17.027Z,15.16
2022-09-12T05:36:44.009Z,15.14
2022-09-12T05:39:10.944Z,15.14
2022-09-12T05:41:38.158Z,15.13
2022-09-12T05:44:11.026Z,15.12
2022-09-12T05:46:44.141Z,15.12
2022-09-12T05:49:13.709Z,15.11
2022-09-12T05:51:44.832Z,15.09
2022-09-12T05:54:18.036Z,15.09
2022-09-12T05:56:45.556Z,15.06
2022-09-12T05:59:21.953Z,15.07
2022-09-12T06:01:49.507Z,15.05
2022-09-12T06:04:17.062Z,15.04
2022-09-12T06:06:45.574Z,15.03
2022-09-12T06:09:15.384Z,15.02
2022-09-12T06:11:43.510Z,15.02
2022-09-12T06:14:14.795Z,15.01
2022-09-12T06:16:42.273Z,15.02
2022-09-12T06:19:21.609Z,15.01
2022-09-12T06:21:53.538Z,14.96
2022-09-12T06:24:21.476Z,14.95
2022-09-12T06:26:49.804Z,14.94
2022-09-12T06:29:16.802Z,14.97
2022-09-12T06:31:44.250Z,14.98
2022-09-12T06:34:14.683Z,15.01
2022-09-12T06:36:45.179Z,15.04
2022-09-12T06:39:16.156Z,15.08
2022-09-12T06:41:44.403Z,15.13
2022-09-12T06:44:19.248Z,15.18
2022-09-12T06:46:46.350Z,15.22
2022-09-12T06:49:14.186Z,15.26
2022-09-12T06:51:44.462Z,15.30
2022-09-12T06:54:16.730Z,15.35
2022-09-12T06:56:44.879Z,15.41
2022-09-12T06:59:11.923Z,15.45
2022-09-12T07:01:40.280Z,15.51
2022-09-12T07:04:07.657Z,15.56
2022-09-12T07:06:42.843Z,15.59
2022-09-12T07:09:18.034Z,15.64
2022-09-12T07:11:46.405Z,15.69
2022-09-12T07:14:15.293Z,15.74
2022-09-12T07:16:42.851Z,15.78
2022-09-12T07:19:10.431Z,15.82
2022-09-12T07:21:40.040Z,15.86
2022-09-12T07:24:09.897Z,15.92
2022-09-12T07:26:38.158Z,15.97
2022-09-12T07:29:32.420Z,16.03
2022-09-12T07:31:52.199Z,16.11
2022-09-12T07:34:19.160Z,16.19
2022-09-12T07:36:46.136Z,16.27
2022-09-12T07:39:13.059Z,16.37
2022-09-12T07:41:40.115Z,16.45
2022-09-12T07:44:07.183Z,16.54
2022-09-12T07:46:35.306Z,16.61
2022-09-12T07:49:03.255Z,16.69
2022-09-12T07:51:31.690Z,16.76
2022-09-12T07:53:59.343Z,16.85
2022-09-12T07:56:31.161Z,16.94
2022-09-12T07:58:59.766Z,17.01
2022-09-12T08:01:27.115Z,17.08
2022-09-12T08:03:59.420Z,17.14
2022-09-12T08:06:32.098Z,17.21
2022-09-12T08:09:00.028Z,17.28
2022-09-12T08:11:29.127Z,17.36
2022-09-12T08:13:57.911Z,17.43
2022-09-12T08:16:31.099Z,17.50
2022-09-12T08:19:00.338Z,17.56
2022-09-12T08:21:30.738Z,17.62
2022-09-12T08:24:02.888Z,17.70
2022-09-12T08:26:30.892Z,17.77
2022-09-12T08:28:57.840Z,17.82
2022-09-12T08:31:26.988Z,17.90
2022-09-12T08:33:58.240Z,18.00
2022-09-12T08:36:27.983Z,18.10
2022-09-12T08:39:04.901Z,18.17
2022-09-12T08:41:45.567Z,18.28
2022-09-12T08:44:34.862Z,18.40
2022-09-12T08:47:32.132Z,18.50
2022-09-12T08:50:11.726Z,18.60
2022-09-12T08:52:56.049Z,18.69
2022-09-12T08:55:38.109Z,18.79
2022-09-12T08:58:23.133Z,18.89
2022-09-12T09:01:39.054Z,19.02
2022-09-12T09:04:52.596Z,19.17
2022-09-12T09:07:49.933Z,19.26
2022-09-12T09:10:44.416Z,19.36
2022-09-12T09:13:57.064Z,19.49
2022-09-12T09:16:34.911Z,19.63
2022-09-12T09:19:17.513Z,19.74
2022-09-12T09:22:03.171Z,19.84
2022-09-12T09:24:58.863Z,19.99
2022-09-12T09:27:49.233Z,20.08
2022-09-12T09:30:19.562Z,20.17
2022-09-12T09:32:56.782Z,20.25
2022-09-12T09:35:43.517Z,20.37
2022-09-12T09:38:23.520Z,20.48
2022-09-12T09:41:38.248Z,20.62
2022-09-12T09:44:05.551Z,20.69
2022-09-12T09:46:33.434Z,20.80
2022-09-12T09:49:05.525Z,20.88
2022-09-12T09:51:38.737Z,20.97
2022-09-12T09:54:26.270Z,21.05
2022-09-12T09:56:56.575Z,21.04
2022-09-12T09:59:33.648Z,21.07
2022-09-12T10:02:24.079Z,21.13
2022-09-12T10:04:57.751Z,21.16
2022-09-12T10:07:26.523Z,21.18
2022-09-12T10:10:19.498Z,21.27
2022-09-12T10:12:46.471Z,21.28
2022-09-12T10:15:22.101Z,21.32
2022-09-12T10:17:51.132Z,21.35
2022-09-12T10:20:41.092Z,21.37
2022-09-12T10:23:37.082Z,21.39
2022-09-12T10:26:11.116Z,21.42
2022-09-12T10:28:49.149Z,21.52
2022-09-12T10:31:35.974Z,21.61
2022-09-12T10:34:03.153Z,21.67
2022-09-12T10:36:39.741Z,21.79
2022-09-12T10:39:16.074Z,21.86
2022-09-12T10:41:43.040Z,21.92
2022-09-12T10:44:18.901Z,21.99
2022-09-12T10:46:45.878Z,22.02
2022-09-12T10:49:40.306Z,22.09
2022-09-12T10:52:24.951Z,22.17
2022-09-12T10:54:53.551Z,22.30
2022-09-12T10:57:34.111Z,22.45
2022-09-12T11:00:17.354Z,22.68
2022-09-12T11:03:31.993Z,22.82
2022-09-12T11:06:01.569Z,23.03
2022-09-12T11:09:04.925Z,23.25
2022-09-12T11:12:00.906Z,23.43
2022-09-12T11:14:42.726Z,23.57
2022-09-12T11:17:23.919Z,23.63
2022-09-12T11:20:14.927Z,23.78
2022-09-12T11:23:07.420Z,23.85
2022-09-12T11:25:41.745Z,24.06
2022-09-12T11:28:37.521Z,24.29
2022-09-12T11:32:03.912Z,24.66
2022-09-12T11:35:03.105Z,24.86
2022-09-12T11:37:57.655Z,24.91
2022-09-12T11:41:06.431Z,24.97
2022-09-12T11:44:08.519Z,25.07
2022-09-12T11:46:36.463Z,25.04
2022-09-12T11:49:09.473Z,25.06
2022-09-12T11:52:00.232Z,25.07
2022-09-12T11:54:44.667Z,25.10
2022-09-12T11:57:39.908Z,25.17
2022-09-12T12:00:24.321Z,25.26
2022-09-12T12:03:26.987Z,25.40
2022-09-12T12:06:21.416Z,25.55
2022-09-12T12:08:50.540Z,25.57
2022-09-12T12:11:37.454Z,25.63
2022-09-12T12:14:32.849Z,25.63
2022-09-12T12:17:00.319Z,25.64
2022-09-12T12:19:37.655Z,25.64
2022-09-12T12:22:22.192Z,25.70
2022-09-12T12:25:01.894Z,25.77
2022-09-12T12:27:53.195Z,25.88
2022-09-12T12:30:28.847Z,25.79
2022-09-12T12:33:43.128Z,25.80
2022-09-12T12:36:28.779Z,25.78
2022-09-12T12:38:55.731Z,25.74
2022-09-12T12:41:23.495Z,25.78
2022-09-12T12:43:56.293Z,25.84
2022-09-12T12:46:26.578Z,25.83
2022-09-12T12:49:22.909Z,25.66
2022-09-12T12:51:58.741Z,25.54
2022-09-12T12:54:49.604Z,25.45
2022-09-12T12:57:40.918Z,25.44
2022-09-12T13:00:29.765Z,25.53
2022-09-12T13:03:01.133Z,25.53
2022-09-12T13:05:37.980Z,25.53
2022-09-12T13:08:35.359Z,25.58
2022-09-12T13:11:16.142Z,25.55
2022-09-12T13:13:57.801Z,25.67
2022-09-12T13:16:35.219Z,25.71
2022-09-12T13:19:18.324Z,25.71
2022-09-12T13:22:06.509Z,25.74
2022-09-12T13:24:34.798Z,25.71
2022-09-12T13:27:02.174Z,25.80
2022-09-12T13:29:29.228Z,25.80
2022-09-12T13:32:00.636Z,25.92
2022-09-12T13:34:33.798Z,26.03
2022-09-12T13:37:23.686Z,26.10
2022-09-12T13:40:37.114Z,26.06
2022-09-12T13:43:23.149Z,26.05
2022-09-12T13:45:50.670Z,26.00
2022-09-12T13:48:23.653Z,26.07
2022-09-12T13:50:59.952Z,26.14
2022-09-12T13:53:42.462Z,26.22
2022-09-12T13:56:19.574Z,26.18
2022-09-12T13:58:58.760Z,26.21
2022-09-12T14:01:42.546Z,26.29
2022-09-12T14:04:44.235Z,26.41
2022-09-12T14:07:20.113Z,26.54
2022-09-12T14:09:56.713Z,26.67
2022-09-12T14:12:43.532Z,26.76
2022-09-12T14:15:27.157Z,26.78
2022-09-12T14:17:59.579Z,26.78
2022-09-12T14:20:32.334Z,26.73
2022-09-12T14:23:16.822Z,26.82
2022-09-12T14:25:47.678Z,26.81
2022-09-12T14:28:23.569Z,26.82
2022-09-12T14:31:45.562Z,26.92
2022-09-12T14:34:18.390Z,26.80
2022-09-12T14:36:52.476Z,26.77
2022-09-12T14:39:32.783Z,26.69
2022-09-12T14:42:22.215Z,26.75
2022-09-12T14:45:15.135Z,26.75
2022-09-12T14:47:48.073Z,26.81
2022-09-12T14:50:23.363Z,26.67
2022-09-12T14:53:34.041Z,26.70
2022-09-12T14:56:10.175Z,26.67
2022-09-12T14:58:38.318Z,26.65
2022-09-12T15:01:08.206Z,26.72
2022-09-12T15:03:53.840Z,26.71
2022-09-12T15:06:36.172Z,26.67
2022-09-12T15:09:08.567Z,26.59
2022-09-12T15:11:35.527Z,26.54
2022-09-12T15:14:15.553Z,26.57
2022-09-12T15:16:42.393Z,26.69
2022-09-12T15:19:09.699Z,26.61
2022-09-12T15:21:36.618Z,26.60
2022-09-12T15:24:03.733Z,26.66
2022-09-12T15:26:31.572Z,26.72
2022-09-12T15:28:58.534Z,26.72
2022-09-12T15:31:32.407Z,26.71
2022-09-12T15:34:01.687Z,26.68
2022-09-12T15:36:29.184Z,26.65
2022-09-12T15:38:56.939Z,26.60
2022-09-12T15:41:37.321Z,26.64
2022-09-12T15:44:07.642Z,26.62
2022-09-12T15:46:34.677Z,26.58
2022-09-12T15:49:01.652Z,26.54
2022-09-12T15:51:28.912Z,26.47
2022-09-12T15:53:55.855Z,26.45
2022-09-12T15:56:23.312Z,26.41
2022-09-12T15:58:58.741Z,26.35
2022-09-12T16:01:27.929Z,26.30
2022-09-12T16:03:54.974Z,26.27
2022-09-12T16:06:22.466Z,26.25
2022-09-12T16:08:49.549Z,26.20
2022-09-12T16:11:24.561Z,26.17
2022-09-12T16:13:55.921Z,26.10
2022-09-12T16:16:22.977Z,26.06
2022-09-12T16:18:49.983Z,26.04
2022-09-12T16:21:17.119Z,25.98
2022-09-12T16:23:45.797Z,25.92
2022-09-12T16:26:13.263Z,25.89
2022-09-12T16:28:40.740Z,25.85
2022-09-12T16:31:11.171Z,25.80
2022-09-12T16:33:39.536Z,25.75
2022-09-12T16:36:09.912Z,25.73
2022-09-12T16:38:49.523Z,25.72
2022-09-12T16:41:18.455Z,25.71
2022-09-12T16:43:46.807Z,25.66
2022-09-12T16:46:17.467Z,25.63
2022-09-12T16:48:54.434Z,25.59
2022-09-12T16:51:31.986Z,25.51
2022-09-12T16:53:59.215Z,25.44
2022-09-12T16:56:26.237Z,25.38
2022-09-12T16:58:53.976Z,25.33
2022-09-12T17:01:26.166Z,25.29
2022-09-12T17:03:58.469Z,25.20
2022-09-12T17:06:27.081Z,25.14
2022-09-12T17:08:58.035Z,25.09
2022-09-12T17:11:37.434Z,25.03
2022-09-12T17:14:07.937Z,24.95
2022-09-12T17:16:39.067Z,24.88
2022-09-12T17:19:07.019Z,24.82
2022-09-12T17:21:35.180Z,24.72
2022-09-12T17:24:03.281Z,24.66
2022-09-12T17:26:30.210Z,24.57
2022-09-12T17:28:57.143Z,24.44
2022-09-12T17:31:24.141Z,24.32
2022-09-12T17:33:55.291Z,24.19
2022-09-12T17:36:22.699Z,24.06
2022-09-12T17:38:49.641Z,23.96
2022-09-12T17:41:20.661Z,23.84
2022-09-12T17:43:52.153Z,23.71
2022-09-12T17:46:20.525Z,23.59
2022-09-12T17:48:56.396Z,23.48
2022-09-12T17:51:25.926Z,23.35
2022-09-12T17:54:17.174Z,23.27
2022-09-12T17:56:46.535Z,23.15
2022-09-12T17:59:20.503Z,23.05
2022-09-12T18:02:07.478Z,22.97
2022-09-12T18:04:35.278Z,22.87
2022-09-12T18:07:02.374Z,22.79
2022-09-12T18:09:30.547Z,22.70
2022-09-12T18:11:58.285Z,22.64
2022-09-12T18:14:27.694Z,22.58
2022-09-12T18:16:57.075Z,22.51
2022-09-12T18:19:24.779Z,22.45
2022-09-12T18:21:51.840Z,22.40
2022-09-12T18:24:19.108Z,22.35
2022-09-12T18:26:46.798Z,22.29
2022-09-12T18:29:19.788Z,22.24
2022-09-12T18:31:47.745Z,22.18
2022-09-12T18:34:16.950Z,22.14
2022-09-12T18:36:49.913Z,22.09
2022-09-12T18:39:17.870Z,22.06
2022-09-12T18:41:50.051Z,22.03
2022-09-12T18:44:17.099Z,22.01
2022-09-12T18:46:44.080Z,21.99
2022-09-12T18:49:11.133Z,21.95
2022-09-12T18:51:40.080Z,21.91
2022-09-12T18:54:13.489Z,21.85
2022-09-12T18:56:43.420Z,21.83
2022-09-12T18:59:13.925Z,21.84
2022-09-12T19:01:41.702Z,21.76
2022-09-12T19:04:10.455Z,21.74
2022-09-12T19:06:42.069Z,21.71
2022-09-12T19:09:11.129Z,21.68
2022-09-12T19:11:42.440Z,21.66
2022-09-12T19:14:09.470Z,21.65
2022-09-12T19:16:37.521Z,21.62
2022-09-12T19:19:04.504Z,21.60
2022-09-12T19:21:34.440Z,21.57
2022-09-12T19:24:10.061Z,21.56
2022-09-12T19:26:38.957Z,21.53
2022-09-12T19:29:07.015Z,21.51
2022-09-12T19:31:34.363Z,21.48
2022-09-12T19:34:03.318Z,21.44
2022-09-12T19:36:47.269Z,21.41
2022-09-12T19:39:16.242Z,21.42
2022-09-12T19:41:44.532Z,21.42
2022-09-12T19:44:11.658Z,21.41
2022-09-12T19:46:38.675Z,21.40
2022-09-12T19:49:05.739Z,21.35
2022-09-12T19:51:33.612Z,21.34
2022-09-12T19:54:00.612Z,21.31
2022-09-12T19:56:27.550Z,21.29
2022-09-12T19:58:56.629Z,21.22
2022-09-12T20:01:28.503Z,21.19
2022-09-12T20:03:57.594Z,21.18
2022-09-12T20:06:25.475Z,21.16
2022-09-12T20:08:52.449Z,21.14
2022-09-12T20:11:21.973Z,21.13
2022-09-12T20:13:49.498Z,21.11
2022-09-12T20:16:26.419Z,21.07
2022-09-12T20:19:03.755Z,21.06
2022-09-12T20:21:32.500Z,21.04
2022-09-12T20:24:11.081Z,21.00
2022-09-12T20:26:38.323Z,20.97
2022-09-12T20:29:06.790Z,20.97
2022-09-12T20:31:35.520Z,20.94
2022-09-12T20:34:03.401Z,20.94
2022-09-12T20:36:30.939Z,20.90
2022-09-12T20:39:01.311Z,20.89
2022-09-12T20:41:31.215Z,20.89
2022-09-12T20:44:00.861Z,20.86
2022-09-12T20:46:28.989Z,20.82
2022-09-12T20:48:56.249Z,20.81
2022-09-12T20:51:26.444Z,20.79
2022-09-12T20:53:54.958Z,20.77
2022-09-12T20:56:23.432Z,20.74
2022-09-12T20:58:51.091Z,20.67
2022-09-12T21:01:18.490Z,20.63
2022-09-12T21:03:46.570Z,20.65
2022-09-12T21:06:16.855Z,20.58
2022-09-12T21:08:46.610Z,20.58
2022-09-12T21:11:14.402Z,20.54
2022-09-12T21:13:41.413Z,20.51
2022-09-12T21:16:13.451Z,20.48
2022-09-12T21:18:41.160Z,20.43
2022-09-12T21:21:10.007Z,20.39
2022-09-12T21:23:37.405Z,20.32
2022-09-12T21:26:04.681Z,20.26
2022-09-12T21:28:31.730Z,20.24
2022-09-12T21:30:58.686Z,20.19
2022-09-12T21:33:26.395Z,20.19
2022-09-12T21:35:53.414Z,20.13
2022-09-12T21:38:20.808Z,20.10
2022-09-12T21:40:48.211Z,20.10
2022-09-12T21:43:15.489Z,20.04
2022-09-12T21:45:42.445Z,19.97
2022-09-12T21:48:13.437Z,19.94
2022-09-12T21:50:40.461Z,19.95
2022-09-12T21:53:07.540Z,19.95
2022-09-12T21:55:34.658Z,19.88
2022-09-12T21:58:01.669Z,19.88
2022-09-12T22:00:28.652Z,19.84
2022-09-12T22:02:56.153Z,19.76
2022-09-12T22:05:23.604Z,19.71
2022-09-12T22:07:50.999Z,19.69
2022-09-12T22:10:18.039Z,19.65
2022-09-12T22:12:46.499Z,19.61
2022-09-12T22:15:36.258Z,19.60
2022-09-12T22:18:01.495Z,19.58
2022-09-12T22:20:28.594Z,19.55
2022-09-12T22:23:14.323Z,19.49
2022-09-12T22:25:41.431Z,19.46
2022-09-12T22:28:08.360Z,19.44
2022-09-12T22:30:35.436Z,19.46
2022-09-12T22:33:02.418Z,19.44
2022-09-12T22:35:29.348Z,19.41
2022-09-12T22:37:56.287Z,19.40
2022-09-12T22:40:23.325Z,19.39
2022-09-12T22:42:52.679Z,19.39
2022-09-12T22:45:19.873Z,19.39
2022-09-12T22:47:46.883Z,19.41
2022-09-12T22:50:14.336Z,19.41
2022-09-12T22:52:41.632Z,19.39
2022-09-12T22:55:09.655Z,19.34
2022-09-12T22:57:37.344Z,19.37
2022-09-12T23:00:08.472Z,19.34
2022-09-12T23:02:35.400Z,19.34
2022-09-12T23:05:03.333Z,19.35
2022-09-12T23:07:30.263Z,19.31
2022-09-12T23:09:57.182Z,19.30
2022-09-12T23:12:24.176Z,19.29
2022-09-12T23:14:51.106Z,19.27
2022-09-12T23:17:18.058Z,19.26
2022-09-12T23:19:45.812Z,19.21
2022-09-12T23:22:12.735Z,19.21
2022-09-12T23:24:39.712Z,19.20
2022-09-12T23:27:06.657Z,19.19
2022-09-12T23:29:35.231Z,19.17
2022-09-12T23:32:03.947Z,19.11
2022-09-12T23:34:30.978Z,19.10
2022-09-12T23:37:01.075Z,19.08
2022-09-12T23:39:28.155Z,19.05
2022-09-12T23:41:55.522Z,19.03
2022-09-12T23:44:22.440Z,19.04
2022-09-12T23:46:49.350Z,18.99
2022-09-12T23:49:16.308Z,18.95
2022-09-12T23:51:43.330Z,18.93
2022-09-12T23:54:10.261Z,18.92
2022-09-12T23:56:37.177Z,18.91
2022-09-12T23:59:04.995Z,18.87
